Time;durP1;ratioP1;P1;durP2;ratioP2;P2;SDS_P1;SDS_P2;PMS_P1;PMS_P2;Temp;Humidity;BMP_temperature;BMP_pressure;BME280_temperature;BME280_humidity;BME280_pressure;Samples;Min_cycle;Max_cycle;Signal;HPM_P1;HPM_P2
2023/04/05 00:00:00;;;;;;;2.0;2.0;;;;;;;4.9;100.0;102240;;;;
2023/04/05 00:01:00;;;;;;;2.0;2.0;;;;;;;4.9;100.0;102240;;;;
2023/04/05 00:02:00;;;;;;;2.0;2.0;;;;;;;4.9;100.0;102230;;;;
2023/04/05 00:03:00;;;;;;;2.0;2.0;;;;;;;4.9;100.0;102230;;;;
2023/04/05 00:04:01;;;;;;;2.0;2.0;;;;;;;4.8;100.0;102230;;;;
2023/04/05 00:05:02;;;;;;;2.0;2.0;;;;;;;4.8;100.0;102230;;;;
2023/04/05 00:06:01;;;;;;;2.0;2.0;;;;;;;4.9;100.0;102240;;;;
2023/04/05 00:07:01;;;;;;;2.2;2.2;;;;;;;4.9;100.0;102240;;;;
2023/04/05 00:08:01;;;;;;;2.2;2.2;;;;;;;4.9;100.0;102240;;;;
2023/04/05 00:09:02;;;;;;;2.2;2.2;;;;;;;4.9;100.0;102240;;;;
2023/04/05 00:10:00;;;;;;;2.2;2.2;;;;;;;4.8;100.0;102240;;;;
2023/04/05 00:11:00;;;;;;;2.2;2.2;;;;;;;4.8;100.0;102240;;;;
2023/04/05 00:12:00;;;;;;;2.2;2.2;;;;;;;4.8;100.0;102240;;;;
2023/04/05 00:13:00;;;;;;;2.2;2.2;;;;;;;4.8;100.0;102240;;;;
2023/04/05 00:14:01;;;;;;;2.2;2.2;;;;;;;4.9;100.0;102230;;;;
2023/04/05 00:15:00;;;;;;;2.2;2.2;;;;;;;4.9;100.0;102230;;;;
2023/04/05 00:16:01;;;;;;;2.2;2.2;;;;;;;4.7;100.0;102230;;;;
2023/04/05 00:17:00;;;;;;;2.2;2.2;;;;;;;4.7;100.0;102230;;;;
2023/04/05 00:18:02;;;;;;;2.2;2.2;;;;;;;4.7;100.0;102240;;;;
2023/04/05 00:19:00;;;;;;;2.2;2.2;;;;;;;4.7;100.0;102240;;;;
2023/04/05 00:20:01;;;;;;;2.2;2.2;;;;;;;4.7;100.0;102240;;;;
2023/04/05 00:21:00;;;;;;;2.2;2.2;;;;;;;4.7;100.0;102240;;;;
2023/04/05 00:22:00;;;;;;;2.2;2.2;;;;;;;4.7;100.0;102240;;;;
2023/04/05 00:23:00;;;;;;;2.2;2.2;;;;;;;4.7;100.0;102240;;;;
2023/04/05 00:24:00;;;;;;;2.2;2.2;;;;;;;4.7;100.0;102240;;;;
2023/04/05 00:25:01;;;;;;;2.2;2.2;;;;;;;4.7;100.0;102240;;;;
2023/04/05 00:26:00;;;;;;;2.2;2.2;;;;;;;4.7;100.0;102230;;;;
2023/04/05 00:27:00;;;;;;;2.2;2.2;;;;;;;4.7;100.0;102230;;;;
2023/04/05 00:28:00;;;;;;;2.2;2.2;;;;;;;4.6;100.0;102230;;;;
2023/04/05 00:29:00;;;;;;;2.2;2.2;;;;;;;4.6;100.0;102230;;;;
2023/04/05 00:30:00;;;;;;;2.2;2.2;;;;;;;4.7;100.0;102230;;;;
2023/04/05 00:31:00;;;;;;;2.2;2.2;;;;;;;4.7;100.0;102230;;;;
2023/04/05 00:32:00;;;;;;;2.2;2.2;;;;;;;4.6;100.0;102230;;;;
2023/04/05 00:33:00;;;;;;;2.2;2.2;;;;;;;4.6;100.0;102230;;;;
2023/04/05 00:34:00;;;;;;;2.2;2.2;;;;;;;4.6;100.0;102230;;;;
2023/04/05 00:35:00;;;;;;;2.2;2.2;;;;;;;4.6;100.0;102230;;;;
2023/04/05 00:36:09;;;;;;;2.2;2.2;;;;;;;4.6;100.0;102230;;;;
2023/04/05 00:37:00;;;;;;;2.2;2.2;;;;;;;4.6;100.0;102230;;;;
2023/04/05 00:38:00;;;;;;;2.2;2.2;;;;;;;4.5;100.0;102220;;;;
2023/04/05 00:39:00;;;;;;;2.2;2.2;;;;;;;4.5;100.0;102220;;;;
2023/04/05 00:40:00;;;;;;;2.2;2.2;;;;;;;4.5;100.0;102220;;;;
2023/04/05 00:41:00;;;;;;;2.2;2.2;;;;;;;4.5;100.0;102220;;;;
2023/04/05 00:42:03;;;;;;;2.2;2.2;;;;;;;4.2;100.0;102220;;;;
2023/04/05 00:43:00;;;;;;;2.2;2.2;;;;;;;4.2;100.0;102220;;;;
2023/04/05 00:44:02;;;;;;;2.2;2.2;;;;;;;4.1;100.0;102220;;;;
2023/04/05 00:45:00;;;;;;;2.2;2.2;;;;;;;4.1;100.0;102220;;;;
2023/04/05 00:46:00;;;;;;;2.2;2.2;;;;;;;3.9;100.0;102220;;;;
2023/04/05 00:47:01;;;;;;;2.1;2.1;;;;;;;3.9;100.0;102220;;;;
2023/04/05 00:48:00;;;;;;;2.1;2.1;;;;;;;4.0;100.0;102220;;;;
2023/04/05 00:49:00;;;;;;;2.1;2.1;;;;;;;4.0;100.0;102220;;;;
2023/04/05 00:50:00;;;;;;;2.1;2.1;;;;;;;4.2;100.0;102220;;;;
2023/04/05 00:51:00;;;;;;;2.1;2.1;;;;;;;4.2;100.0;102220;;;;
2023/04/05 00:52:00;;;;;;;2.1;2.1;;;;;;;4.2;100.0;102220;;;;
2023/04/05 00:53:01;;;;;;;2.1;2.1;;;;;;;4.2;100.0;102220;;;;
2023/04/05 00:54:01;;;;;;;2.1;2.1;;;;;;;4.2;100.0;102220;;;;
2023/04/05 00:55:00;;;;;;;2.1;2.1;;;;;;;4.2;100.0;102220;;;;
2023/04/05 00:56:01;;;;;;;2.1;2.1;;;;;;;4.2;100.0;102220;;;;
2023/04/05 00:57:01;;;;;;;2.1;2.1;;;;;;;4.2;100.0;102220;;;;
2023/04/05 00:58:00;;;;;;;2.1;2.1;;;;;;;4.2;100.0;102220;;;;
2023/04/05 00:59:00;;;;;;;2.1;2.1;;;;;;;4.2;100.0;102220;;;;
2023/04/05 01:00:06;;;;;;;2.1;2.1;;;;;;;4.2;100.0;102220;;;;
2023/04/05 01:01:05;;;;;;;2.1;2.1;;;;;;;4.2;100.0;102220;;;;
2023/04/05 01:02:05;;;;;;;2.1;2.1;;;;;;;4.1;100.0;102210;;;;
2023/04/05 01:03:02;;;;;;;2.1;2.1;;;;;;;4.1;100.0;102210;;;;
2023/04/05 01:04:02;;;;;;;2.1;2.1;;;;;;;4.1;100.0;102210;;;;
2023/04/05 01:05:07;;;;;;;2.1;2.1;;;;;;;4.1;100.0;102210;;;;
2023/04/05 01:06:10;;;;;;;2.1;2.1;;;;;;;4.2;100.0;102210;;;;
2023/04/05 01:07:10;;;;;;;2.3;2.3;;;;;;;4.2;100.0;102210;;;;
2023/04/05 01:08:01;;;;;;;2.3;2.3;;;;;;;4.1;100.0;102210;;;;
2023/04/05 01:09:10;;;;;;;2.3;2.3;;;;;;;4.1;100.0;102210;;;;
2023/04/05 01:10:04;;;;;;;2.3;2.3;;;;;;;4.0;100.0;102210;;;;
2023/04/05 01:11:02;;;;;;;2.3;2.3;;;;;;;4.0;100.0;102210;;;;
2023/04/05 01:12:03;;;;;;;2.3;2.3;;;;;;;4.1;100.0;102210;;;;
2023/04/05 01:13:00;;;;;;;2.3;2.3;;;;;;;4.1;100.0;102210;;;;
2023/04/05 01:14:01;;;;;;;2.3;2.3;;;;;;;4.0;100.0;102210;;;;
2023/04/05 01:15:00;;;;;;;2.3;2.3;;;;;;;4.0;100.0;102210;;;;
2023/04/05 01:16:00;;;;;;;2.3;2.3;;;;;;;4.1;100.0;102210;;;;
2023/04/05 01:17:02;;;;;;;2.3;2.3;;;;;;;4.1;100.0;102210;;;;
2023/04/05 01:18:01;;;;;;;2.3;2.3;;;;;;;4.0;100.0;102200;;;;
2023/04/05 01:19:00;;;;;;;2.3;2.3;;;;;;;4.0;100.0;102200;;;;
2023/04/05 01:20:02;;;;;;;2.3;2.3;;;;;;;4.0;100.0;102200;;;;
2023/04/05 01:21:10;;;;;;;2.3;2.3;;;;;;;4.0;100.0;102200;;;;
2023/04/05 01:22:12;;;;;;;2.3;2.3;;;;;;;4.0;100.0;102200;;;;
2023/04/05 01:23:10;;;;;;;2.3;2.3;;;;;;;4.0;100.0;102200;;;;
2023/04/05 01:24:08;;;;;;;2.3;2.3;;;;;;;4.0;100.0;102200;;;;
2023/04/05 01:25:10;;;;;;;2.3;2.3;;;;;;;4.0;100.0;102200;;;;
2023/04/05 01:26:10;;;;;;;2.3;2.3;;;;;;;4.0;100.0;102200;;;;
2023/04/05 01:27:05;;;;;;;2.0;2.0;;;;;;;4.0;100.0;102200;;;;
2023/04/05 01:28:10;;;;;;;2.0;2.0;;;;;;;4.0;100.0;102210;;;;
2023/04/05 01:29:02;;;;;;;2.0;2.0;;;;;;;4.0;100.0;102210;;;;
2023/04/05 01:30:06;;;;;;;2.0;2.0;;;;;;;3.7;100.0;102200;;;;
2023/04/05 01:31:03;;;;;;;2.0;2.0;;;;;;;3.7;100.0;102200;;;;
2023/04/05 01:32:01;;;;;;;2.0;2.0;;;;;;;3.7;100.0;102200;;;;
2023/04/05 01:33:01;;;;;;;2.0;2.0;;;;;;;3.7;100.0;102200;;;;
2023/04/05 01:34:07;;;;;;;2.0;2.0;;;;;;;3.5;100.0;102200;;;;
2023/04/05 01:35:07;;;;;;;2.0;2.0;;;;;;;3.5;100.0;102200;;;;
2023/04/05 01:36:03;;;;;;;2.0;2.0;;;;;;;3.6;100.0;102200;;;;
2023/04/05 01:37:01;;;;;;;2.0;2.0;;;;;;;3.6;100.0;102200;;;;
2023/04/05 01:38:02;;;;;;;2.0;2.0;;;;;;;3.7;100.0;102200;;;;
2023/04/05 01:39:02;;;;;;;2.0;2.0;;;;;;;3.7;100.0;102200;;;;
2023/04/05 01:40:01;;;;;;;2.0;2.0;;;;;;;3.7;100.0;102190;;;;
2023/04/05 01:41:00;;;;;;;2.0;2.0;;;;;;;3.7;100.0;102190;;;;
2023/04/05 01:42:01;;;;;;;2.0;2.0;;;;;;;3.7;100.0;102190;;;;
2023/04/05 01:43:01;;;;;;;2.0;2.0;;;;;;;3.7;100.0;102190;;;;
2023/04/05 01:44:00;;;;;;;2.0;2.0;;;;;;;3.7;100.0;102190;;;;
2023/04/05 01:45:00;;;;;;;2.0;2.0;;;;;;;3.7;100.0;102190;;;;
2023/04/05 01:46:00;;;;;;;2.0;2.0;;;;;;;3.7;100.0;102190;;;;
2023/04/05 01:47:00;;;;;;;2.6;2.5;;;;;;;3.7;100.0;102190;;;;
2023/04/05 01:48:00;;;;;;;2.6;2.5;;;;;;;3.7;100.0;102180;;;;
2023/04/05 01:49:00;;;;;;;2.6;2.5;;;;;;;3.7;100.0;102180;;;;
2023/04/05 01:50:00;;;;;;;2.6;2.5;;;;;;;3.4;100.0;102190;;;;
2023/04/05 01:51:00;;;;;;;2.6;2.5;;;;;;;3.4;100.0;102190;;;;
2023/04/05 01:52:00;;;;;;;2.6;2.5;;;;;;;3.5;100.0;102180;;;;
2023/04/05 01:53:00;;;;;;;2.6;2.5;;;;;;;3.5;100.0;102180;;;;
2023/04/05 01:54:00;;;;;;;2.6;2.5;;;;;;;3.6;100.0;102180;;;;
2023/04/05 01:55:00;;;;;;;2.6;2.5;;;;;;;3.6;100.0;102180;;;;
2023/04/05 01:56:01;;;;;;;2.6;2.5;;;;;;;3.4;100.0;102180;;;;
2023/04/05 01:57:00;;;;;;;2.6;2.5;;;;;;;3.4;100.0;102180;;;;
2023/04/05 01:58:00;;;;;;;2.6;2.5;;;;;;;3.5;100.0;102180;;;;
2023/04/05 01:59:00;;;;;;;2.6;2.5;;;;;;;3.5;100.0;102180;;;;
2023/04/05 02:00:00;;;;;;;2.6;2.5;;;;;;;3.4;100.0;102180;;;;
2023/04/05 02:01:00;;;;;;;2.6;2.5;;;;;;;3.4;100.0;102180;;;;
2023/04/05 02:02:00;;;;;;;2.6;2.5;;;;;;;3.4;100.0;102180;;;;
2023/04/05 02:03:00;;;;;;;2.6;2.5;;;;;;;3.4;100.0;102180;;;;
2023/04/05 02:04:00;;;;;;;2.6;2.5;;;;;;;3.3;100.0;102190;;;;
2023/04/05 02:05:00;;;;;;;2.6;2.5;;;;;;;3.3;100.0;102190;;;;
2023/04/05 02:06:00;;;;;;;2.6;2.5;;;;;;;3.3;100.0;102190;;;;
2023/04/05 02:07:00;;;;;;;2.7;2.6;;;;;;;3.3;100.0;102190;;;;
2023/04/05 02:08:01;;;;;;;2.7;2.6;;;;;;;3.3;100.0;102180;;;;
2023/04/05 02:09:00;;;;;;;2.7;2.6;;;;;;;3.3;100.0;102180;;;;
2023/04/05 02:10:00;;;;;;;2.7;2.6;;;;;;;3.3;100.0;102180;;;;
2023/04/05 02:11:00;;;;;;;2.7;2.6;;;;;;;3.3;100.0;102180;;;;
2023/04/05 02:12:00;;;;;;;2.7;2.6;;;;;;;3.3;100.0;102180;;;;
2023/04/05 02:13:00;;;;;;;2.7;2.6;;;;;;;3.3;100.0;102180;;;;
2023/04/05 02:14:00;;;;;;;2.7;2.6;;;;;;;3.2;100.0;102180;;;;
2023/04/05 02:15:00;;;;;;;2.7;2.6;;;;;;;3.2;100.0;102180;;;;
2023/04/05 02:16:00;;;;;;;2.7;2.6;;;;;;;3.1;100.0;102180;;;;
2023/04/05 02:17:02;;;;;;;2.7;2.6;;;;;;;3.1;100.0;102180;;;;
2023/04/05 02:18:00;;;;;;;2.7;2.6;;;;;;;3.0;100.0;102180;;;;
2023/04/05 02:19:01;;;;;;;2.7;2.6;;;;;;;3.0;100.0;102180;;;;
2023/04/05 02:20:01;;;;;;;2.7;2.6;;;;;;;3.1;100.0;102180;;;;
2023/04/05 02:21:01;;;;;;;2.7;2.6;;;;;;;3.1;100.0;102180;;;;
2023/04/05 02:22:00;;;;;;;2.7;2.6;;;;;;;3.1;100.0;102170;;;;
2023/04/05 02:23:00;;;;;;;2.7;2.6;;;;;;;3.1;100.0;102170;;;;
2023/04/05 02:24:00;;;;;;;2.7;2.6;;;;;;;3.1;100.0;102170;;;;
2023/04/05 02:25:00;;;;;;;2.7;2.6;;;;;;;3.1;100.0;102170;;;;
2023/04/05 02:26:00;;;;;;;2.4;2.4;;;;;;;3.2;100.0;102170;;;;
2023/04/05 02:27:00;;;;;;;2.4;2.4;;;;;;;3.2;100.0;102170;;;;
2023/04/05 02:28:00;;;;;;;2.4;2.4;;;;;;;3.1;100.0;102170;;;;
2023/04/05 02:29:00;;;;;;;2.4;2.4;;;;;;;3.1;100.0;102170;;;;
2023/04/05 02:30:01;;;;;;;2.4;2.4;;;;;;;3.1;100.0;102170;;;;
2023/04/05 02:31:00;;;;;;;2.4;2.4;;;;;;;3.1;100.0;102170;;;;
2023/04/05 02:32:00;;;;;;;2.4;2.4;;;;;;;3.1;100.0;102170;;;;
2023/04/05 02:33:00;;;;;;;2.4;2.4;;;;;;;3.1;100.0;102170;;;;
2023/04/05 02:34:00;;;;;;;2.4;2.4;;;;;;;3.0;100.0;102170;;;;
2023/04/05 02:35:01;;;;;;;2.4;2.4;;;;;;;3.0;100.0;102170;;;;
2023/04/05 02:36:02;;;;;;;2.4;2.4;;;;;;;3.0;100.0;102170;;;;
2023/04/05 02:37:00;;;;;;;2.4;2.4;;;;;;;3.0;100.0;102170;;;;
2023/04/05 02:38:00;;;;;;;2.4;2.4;;;;;;;3.0;100.0;102170;;;;
2023/04/05 02:39:00;;;;;;;2.4;2.4;;;;;;;3.0;100.0;102170;;;;
2023/04/05 02:40:00;;;;;;;2.4;2.4;;;;;;;3.1;100.0;102170;;;;
2023/04/05 02:41:00;;;;;;;2.4;2.4;;;;;;;3.1;100.0;102170;;;;
2023/04/05 02:42:00;;;;;;;2.4;2.4;;;;;;;3.1;100.0;102170;;;;
2023/04/05 02:43:00;;;;;;;2.4;2.4;;;;;;;3.1;100.0;102170;;;;
2023/04/05 02:44:00;;;;;;;2.4;2.4;;;;;;;3.1;100.0;102160;;;;
2023/04/05 02:45:00;;;;;;;2.4;2.4;;;;;;;3.1;100.0;102160;;;;
2023/04/05 02:46:00;;;;;;;2.9;2.8;;;;;;;2.9;100.0;102160;;;;
2023/04/05 02:47:00;;;;;;;2.9;2.8;;;;;;;2.9;100.0;102160;;;;
2023/04/05 02:48:00;;;;;;;2.9;2.8;;;;;;;2.9;100.0;102160;;;;
2023/04/05 02:49:00;;;;;;;2.9;2.8;;;;;;;2.9;100.0;102160;;;;
2023/04/05 02:50:00;;;;;;;2.9;2.8;;;;;;;2.9;100.0;102170;;;;
2023/04/05 02:51:00;;;;;;;2.9;2.8;;;;;;;2.9;100.0;102170;;;;
2023/04/05 02:52:00;;;;;;;2.9;2.8;;;;;;;3.0;100.0;102160;;;;
2023/04/05 02:53:00;;;;;;;2.9;2.8;;;;;;;3.0;100.0;102160;;;;
2023/04/05 02:54:01;;;;;;;2.9;2.8;;;;;;;2.8;100.0;102160;;;;
2023/04/05 02:55:00;;;;;;;2.9;2.8;;;;;;;2.8;100.0;102160;;;;
2023/04/05 02:56:00;;;;;;;2.9;2.8;;;;;;;2.9;100.0;102160;;;;
2023/04/05 02:57:01;;;;;;;2.9;2.8;;;;;;;2.9;100.0;102160;;;;
2023/04/05 02:58:00;;;;;;;2.9;2.8;;;;;;;2.8;100.0;102160;;;;
2023/04/05 02:59:01;;;;;;;2.9;2.8;;;;;;;2.8;100.0;102160;;;;
2023/04/05 03:00:00;;;;;;;2.9;2.8;;;;;;;2.9;100.0;102150;;;;
2023/04/05 03:01:05;;;;;;;2.9;2.8;;;;;;;2.9;100.0;102150;;;;
2023/04/05 03:02:00;;;;;;;2.9;2.8;;;;;;;2.8;100.0;102150;;;;
2023/04/05 03:03:00;;;;;;;2.9;2.8;;;;;;;2.8;100.0;102150;;;;
2023/04/05 03:04:01;;;;;;;2.9;2.8;;;;;;;2.7;100.0;102150;;;;
2023/04/05 03:05:01;;;;;;;2.9;2.8;;;;;;;2.7;100.0;102150;;;;
2023/04/05 03:06:09;;;;;;;2.5;2.5;;;;;;;2.8;100.0;102150;;;;
2023/04/05 03:07:01;;;;;;;2.5;2.5;;;;;;;2.8;100.0;102150;;;;
2023/04/05 03:08:01;;;;;;;2.5;2.5;;;;;;;2.8;100.0;102150;;;;
2023/04/05 03:09:00;;;;;;;2.5;2.5;;;;;;;2.8;100.0;102150;;;;
2023/04/05 03:10:01;;;;;;;2.5;2.5;;;;;;;2.8;100.0;102150;;;;
2023/04/05 03:11:00;;;;;;;2.5;2.5;;;;;;;2.8;100.0;102150;;;;
2023/04/05 03:12:02;;;;;;;2.5;2.5;;;;;;;2.7;100.0;102150;;;;
2023/04/05 03:13:00;;;;;;;2.5;2.5;;;;;;;2.7;100.0;102150;;;;
2023/04/05 03:14:00;;;;;;;2.5;2.5;;;;;;;2.8;100.0;102140;;;;
2023/04/05 03:15:00;;;;;;;2.5;2.5;;;;;;;2.8;100.0;102140;;;;
2023/04/05 03:16:00;;;;;;;2.5;2.5;;;;;;;2.7;100.0;102140;;;;
2023/04/05 03:17:00;;;;;;;2.5;2.5;;;;;;;2.7;100.0;102140;;;;
2023/04/05 03:18:00;;;;;;;2.5;2.5;;;;;;;2.7;100.0;102140;;;;
2023/04/05 03:19:01;;;;;;;2.5;2.5;;;;;;;2.7;100.0;102140;;;;
2023/04/05 03:20:01;;;;;;;2.5;2.5;;;;;;;2.7;100.0;102140;;;;
2023/04/05 03:21:00;;;;;;;2.5;2.5;;;;;;;2.7;100.0;102140;;;;
2023/04/05 03:22:00;;;;;;;2.5;2.5;;;;;;;2.7;100.0;102140;;;;
2023/04/05 03:23:00;;;;;;;2.5;2.5;;;;;;;2.7;100.0;102140;;;;
2023/04/05 03:24:00;;;;;;;2.5;2.5;;;;;;;2.7;100.0;102130;;;;
2023/04/05 03:25:00;;;;;;;2.5;2.5;;;;;;;2.7;100.0;102130;;;;
2023/04/05 03:26:01;;;;;;;2.5;2.5;;;;;;;2.7;100.0;102140;;;;
2023/04/05 03:27:02;;;;;;;2.5;2.5;;;;;;;2.7;100.0;102140;;;;
2023/04/05 03:28:02;;;;;;;2.5;2.5;;;;;;;2.5;100.0;102130;;;;
2023/04/05 03:29:00;;;;;;;2.5;2.5;;;;;;;2.5;100.0;102130;;;;
2023/04/05 03:30:00;;;;;;;2.5;2.5;;;;;;;2.5;100.0;102130;;;;
2023/04/05 03:31:00;;;;;;;2.5;2.5;;;;;;;2.5;100.0;102130;;;;
2023/04/05 03:32:00;;;;;;;2.5;2.5;;;;;;;2.5;100.0;102130;;;;
2023/04/05 03:33:01;;;;;;;2.5;2.5;;;;;;;2.5;100.0;102130;;;;
2023/04/05 03:34:00;;;;;;;2.5;2.5;;;;;;;2.5;100.0;102130;;;;
2023/04/05 03:35:00;;;;;;;2.5;2.5;;;;;;;2.5;100.0;102130;;;;
2023/04/05 03:36:00;;;;;;;2.5;2.5;;;;;;;2.5;100.0;102140;;;;
2023/04/05 03:37:00;;;;;;;2.5;2.5;;;;;;;2.5;100.0;102140;;;;
2023/04/05 03:38:00;;;;;;;2.5;2.5;;;;;;;2.5;100.0;102130;;;;
2023/04/05 03:39:00;;;;;;;2.5;2.5;;;;;;;2.5;100.0;102130;;;;
2023/04/05 03:40:00;;;;;;;2.5;2.5;;;;;;;2.5;100.0;102140;;;;
2023/04/05 03:41:01;;;;;;;2.5;2.5;;;;;;;2.5;100.0;102140;;;;
2023/04/05 03:42:00;;;;;;;2.5;2.5;;;;;;;2.4;100.0;102130;;;;
2023/04/05 03:43:00;;;;;;;2.5;2.5;;;;;;;2.4;100.0;102130;;;;
2023/04/05 03:44:00;;;;;;;2.5;2.5;;;;;;;2.3;100.0;102130;;;;
2023/04/05 03:45:00;;;;;;;2.5;2.5;;;;;;;2.3;100.0;102130;;;;
2023/04/05 03:46:00;;;;;;;3.3;3.2;;;;;;;2.3;100.0;102130;;;;
2023/04/05 03:47:00;;;;;;;3.3;3.2;;;;;;;2.3;100.0;102130;;;;
2023/04/05 03:48:01;;;;;;;3.3;3.2;;;;;;;2.4;100.0;102130;;;;
2023/04/05 03:49:01;;;;;;;3.3;3.2;;;;;;;2.4;100.0;102130;;;;
2023/04/05 03:50:01;;;;;;;3.3;3.2;;;;;;;2.2;100.0;102130;;;;
2023/04/05 03:51:00;;;;;;;3.3;3.2;;;;;;;2.2;100.0;102130;;;;
2023/04/05 03:52:00;;;;;;;3.3;3.2;;;;;;;2.2;100.0;102140;;;;
2023/04/05 03:53:00;;;;;;;3.3;3.2;;;;;;;2.2;100.0;102140;;;;
2023/04/05 03:54:00;;;;;;;3.3;3.2;;;;;;;2.3;100.0;102130;;;;
2023/04/05 03:55:00;;;;;;;3.3;3.2;;;;;;;2.3;100.0;102130;;;;
2023/04/05 03:56:00;;;;;;;3.3;3.2;;;;;;;2.3;100.0;102120;;;;
2023/04/05 03:57:01;;;;;;;3.3;3.2;;;;;;;2.3;100.0;102120;;;;
2023/04/05 03:58:00;;;;;;;3.3;3.2;;;;;;;2.2;100.0;102120;;;;
2023/04/05 03:59:00;;;;;;;3.3;3.2;;;;;;;2.2;100.0;102120;;;;
2023/04/05 04:00:00;;;;;;;3.3;3.2;;;;;;;2.2;100.0;102120;;;;
2023/04/05 04:01:00;;;;;;;3.3;3.2;;;;;;;2.2;100.0;102120;;;;
2023/04/05 04:02:01;;;;;;;3.3;3.2;;;;;;;2.2;100.0;102120;;;;
2023/04/05 04:03:00;;;;;;;3.3;3.2;;;;;;;2.2;100.0;102120;;;;
2023/04/05 04:04:00;;;;;;;3.3;3.2;;;;;;;2.2;100.0;102110;;;;
2023/04/05 04:05:00;;;;;;;3.3;3.2;;;;;;;2.2;100.0;102110;;;;
2023/04/05 04:06:00;;;;;;;2.8;2.7;;;;;;;2.1;100.0;102110;;;;
2023/04/05 04:07:00;;;;;;;2.8;2.7;;;;;;;2.1;100.0;102110;;;;
2023/04/05 04:08:00;;;;;;;2.8;2.7;;;;;;;2.1;100.0;102110;;;;
2023/04/05 04:09:00;;;;;;;2.8;2.7;;;;;;;2.1;100.0;102110;;;;
2023/04/05 04:10:00;;;;;;;2.8;2.7;;;;;;;2.2;100.0;102110;;;;
2023/04/05 04:11:00;;;;;;;2.8;2.7;;;;;;;2.2;100.0;102110;;;;
2023/04/05 04:12:00;;;;;;;2.8;2.7;;;;;;;2.2;100.0;102110;;;;
2023/04/05 04:13:00;;;;;;;2.8;2.7;;;;;;;2.2;100.0;102110;;;;
2023/04/05 04:14:00;;;;;;;2.8;2.7;;;;;;;2.0;100.0;102110;;;;
2023/04/05 04:15:00;;;;;;;2.8;2.7;;;;;;;2.0;100.0;102110;;;;
2023/04/05 04:16:00;;;;;;;2.8;2.7;;;;;;;2.1;100.0;102120;;;;
2023/04/05 04:17:00;;;;;;;2.8;2.7;;;;;;;2.1;100.0;102120;;;;
2023/04/05 04:18:00;;;;;;;2.8;2.7;;;;;;;2.1;100.0;102110;;;;
2023/04/05 04:19:00;;;;;;;2.8;2.7;;;;;;;2.1;100.0;102110;;;;
2023/04/05 04:20:00;;;;;;;2.8;2.7;;;;;;;1.8;100.0;102110;;;;
2023/04/05 04:21:05;;;;;;;2.8;2.7;;;;;;;1.8;100.0;102110;;;;
2023/04/05 04:22:01;;;;;;;2.8;2.7;;;;;;;1.9;100.0;102110;;;;
2023/04/05 04:23:00;;;;;;;2.8;2.7;;;;;;;1.9;100.0;102110;;;;
2023/04/05 04:24:00;;;;;;;2.8;2.7;;;;;;;1.9;100.0;102110;;;;
2023/04/05 04:25:02;;;;;;;2.8;2.7;;;;;;;1.9;100.0;102110;;;;
2023/04/05 04:26:01;;;;;;;2.8;2.7;;;;;;;1.9;100.0;102110;;;;
2023/04/05 04:27:00;;;;;;;2.8;2.7;;;;;;;1.9;100.0;102110;;;;
2023/04/05 04:28:00;;;;;;;2.8;2.7;;;;;;;2.0;100.0;102110;;;;
2023/04/05 04:29:05;;;;;;;2.8;2.7;;;;;;;2.0;100.0;102110;;;;
2023/04/05 04:30:02;;;;;;;2.8;2.7;;;;;;;2.0;100.0;102110;;;;
2023/04/05 04:31:03;;;;;;;2.8;2.7;;;;;;;2.0;100.0;102110;;;;
2023/04/05 04:32:00;;;;;;;2.8;2.7;;;;;;;2.0;100.0;102100;;;;
2023/04/05 04:33:03;;;;;;;2.8;2.7;;;;;;;2.0;100.0;102100;;;;
2023/04/05 04:34:02;;;;;;;2.8;2.7;;;;;;;2.0;100.0;102110;;;;
2023/04/05 04:35:04;;;;;;;2.8;2.7;;;;;;;2.0;100.0;102110;;;;
2023/04/05 04:36:05;;;;;;;2.8;2.7;;;;;;;1.9;100.0;102110;;;;
2023/04/05 04:37:00;;;;;;;2.8;2.7;;;;;;;1.9;100.0;102110;;;;
2023/04/05 04:38:02;;;;;;;2.8;2.7;;;;;;;1.9;100.0;102110;;;;
2023/04/05 04:39:04;;;;;;;2.8;2.7;;;;;;;1.9;100.0;102110;;;;
2023/04/05 04:40:07;;;;;;;2.8;2.7;;;;;;;1.9;100.0;102110;;;;
2023/04/05 04:41:05;;;;;;;2.8;2.7;;;;;;;1.9;100.0;102110;;;;
2023/04/05 04:42:00;;;;;;;2.8;2.7;;;;;;;1.5;100.0;102110;;;;
2023/04/05 04:43:00;;;;;;;2.8;2.7;;;;;;;1.5;100.0;102110;;;;
2023/04/05 04:44:01;;;;;;;2.8;2.7;;;;;;;1.6;100.0;102110;;;;
2023/04/05 04:45:01;;;;;;;2.8;2.7;;;;;;;1.6;100.0;102110;;;;
2023/04/05 04:46:05;;;;;;;2.8;2.7;;;;;;;1.7;100.0;102110;;;;
2023/04/05 04:47:00;;;;;;;2.8;2.7;;;;;;;1.7;100.0;102110;;;;
2023/04/05 04:48:03;;;;;;;2.8;2.7;;;;;;;1.7;100.0;102110;;;;
2023/04/05 04:49:04;;;;;;;2.8;2.7;;;;;;;1.7;100.0;102110;;;;
2023/04/05 04:50:00;;;;;;;2.8;2.7;;;;;;;1.6;100.0;102110;;;;
2023/04/05 04:51:01;;;;;;;2.8;2.7;;;;;;;1.6;100.0;102110;;;;
2023/04/05 04:52:00;;;;;;;2.8;2.7;;;;;;;1.7;100.0;102110;;;;
2023/04/05 04:53:00;;;;;;;2.8;2.7;;;;;;;1.7;100.0;102110;;;;
2023/04/05 04:54:00;;;;;;;2.8;2.7;;;;;;;1.5;100.0;102120;;;;
2023/04/05 04:55:01;;;;;;;2.8;2.7;;;;;;;1.5;100.0;102120;;;;
2023/04/05 04:56:00;;;;;;;2.8;2.7;;;;;;;1.7;100.0;102110;;;;
2023/04/05 04:57:01;;;;;;;2.8;2.7;;;;;;;1.7;100.0;102110;;;;
2023/04/05 04:58:00;;;;;;;2.8;2.7;;;;;;;1.5;100.0;102110;;;;
2023/04/05 04:59:00;;;;;;;2.8;2.7;;;;;;;1.5;100.0;102110;;;;
2023/04/05 05:00:00;;;;;;;2.8;2.7;;;;;;;1.6;100.0;102110;;;;
2023/04/05 05:01:07;;;;;;;2.8;2.7;;;;;;;1.6;100.0;102110;;;;
2023/04/05 05:02:00;;;;;;;2.8;2.7;;;;;;;1.7;100.0;102110;;;;
2023/04/05 05:03:00;;;;;;;2.8;2.7;;;;;;;1.7;100.0;102110;;;;
2023/04/05 05:04:01;;;;;;;2.8;2.7;;;;;;;1.7;100.0;102110;;;;
2023/04/05 05:05:00;;;;;;;2.8;2.7;;;;;;;1.7;100.0;102110;;;;
2023/04/05 05:06:01;;;;;;;2.9;2.8;;;;;;;1.7;100.0;102110;;;;
2023/04/05 05:07:00;;;;;;;2.9;2.8;;;;;;;1.7;100.0;102110;;;;
2023/04/05 05:08:00;;;;;;;2.9;2.8;;;;;;;1.7;100.0;102110;;;;
2023/04/05 05:09:00;;;;;;;2.9;2.8;;;;;;;1.7;100.0;102110;;;;
2023/04/05 05:10:00;;;;;;;2.9;2.8;;;;;;;1.6;100.0;102110;;;;
2023/04/05 05:11:00;;;;;;;2.9;2.8;;;;;;;1.6;100.0;102110;;;;
2023/04/05 05:12:00;;;;;;;2.9;2.8;;;;;;;1.6;100.0;102110;;;;
2023/04/05 05:13:00;;;;;;;2.9;2.8;;;;;;;1.6;100.0;102110;;;;
2023/04/05 05:14:00;;;;;;;2.9;2.8;;;;;;;1.6;100.0;102110;;;;
2023/04/05 05:15:00;;;;;;;2.9;2.8;;;;;;;1.6;100.0;102110;;;;
2023/04/05 05:16:03;;;;;;;2.9;2.8;;;;;;;1.7;100.0;102110;;;;
2023/04/05 05:17:00;;;;;;;2.9;2.8;;;;;;;1.7;100.0;102110;;;;
2023/04/05 05:18:00;;;;;;;2.9;2.8;;;;;;;1.6;100.0;102110;;;;
2023/04/05 05:19:00;;;;;;;2.9;2.8;;;;;;;1.6;100.0;102110;;;;
2023/04/05 05:20:01;;;;;;;2.9;2.8;;;;;;;1.5;100.0;102110;;;;
2023/04/05 05:21:00;;;;;;;2.9;2.8;;;;;;;1.5;100.0;102110;;;;
2023/04/05 05:22:00;;;;;;;2.9;2.8;;;;;;;1.5;100.0;102110;;;;
2023/04/05 05:23:02;;;;;;;2.9;2.8;;;;;;;1.5;100.0;102110;;;;
2023/04/05 05:24:00;;;;;;;2.9;2.8;;;;;;;1.6;100.0;102110;;;;
2023/04/05 05:25:00;;;;;;;2.9;2.8;;;;;;;1.6;100.0;102110;;;;
2023/04/05 05:26:00;;;;;;;3.2;3.1;;;;;;;1.5;100.0;102120;;;;
2023/04/05 05:27:00;;;;;;;3.2;3.1;;;;;;;1.5;100.0;102120;;;;
2023/04/05 05:28:00;;;;;;;3.2;3.1;;;;;;;1.4;100.0;102110;;;;
2023/04/05 05:29:01;;;;;;;3.2;3.1;;;;;;;1.4;100.0;102110;;;;
2023/04/05 05:30:00;;;;;;;3.2;3.1;;;;;;;1.1;100.0;102120;;;;
2023/04/05 05:31:02;;;;;;;3.2;3.1;;;;;;;1.1;100.0;102120;;;;
2023/04/05 05:32:00;;;;;;;3.2;3.1;;;;;;;1.3;100.0;102110;;;;
2023/04/05 05:33:01;;;;;;;3.2;3.1;;;;;;;1.3;100.0;102110;;;;
2023/04/05 05:34:00;;;;;;;3.2;3.1;;;;;;;1.4;100.0;102120;;;;
2023/04/05 05:35:00;;;;;;;3.2;3.1;;;;;;;1.4;100.0;102120;;;;
2023/04/05 05:36:02;;;;;;;3.2;3.1;;;;;;;1.5;100.0;102110;;;;
2023/04/05 05:37:00;;;;;;;3.2;3.1;;;;;;;1.5;100.0;102110;;;;
2023/04/05 05:38:01;;;;;;;3.2;3.1;;;;;;;1.6;100.0;102110;;;;
2023/04/05 05:39:00;;;;;;;3.2;3.1;;;;;;;1.6;100.0;102110;;;;
2023/04/05 05:40:00;;;;;;;3.2;3.1;;;;;;;1.5;100.0;102110;;;;
2023/04/05 05:41:01;;;;;;;3.2;3.1;;;;;;;1.5;100.0;102110;;;;
2023/04/05 05:42:00;;;;;;;3.2;3.1;;;;;;;1.5;100.0;102110;;;;
2023/04/05 05:43:00;;;;;;;3.2;3.1;;;;;;;1.5;100.0;102110;;;;
2023/04/05 05:44:00;;;;;;;3.2;3.1;;;;;;;1.6;100.0;102100;;;;
2023/04/05 05:45:02;;;;;;;3.2;3.1;;;;;;;1.6;100.0;102100;;;;
2023/04/05 05:46:01;;;;;;;3.2;3.1;;;;;;;1.6;100.0;102100;;;;
2023/04/05 05:47:00;;;;;;;3.2;3.1;;;;;;;1.6;100.0;102100;;;;
2023/04/05 05:48:00;;;;;;;3.2;3.1;;;;;;;1.6;100.0;102100;;;;
2023/04/05 05:49:00;;;;;;;3.2;3.1;;;;;;;1.6;100.0;102100;;;;
2023/04/05 05:50:00;;;;;;;3.2;3.1;;;;;;;1.6;100.0;102100;;;;
2023/04/05 05:51:01;;;;;;;3.2;3.1;;;;;;;1.6;100.0;102100;;;;
2023/04/05 05:52:00;;;;;;;3.2;3.1;;;;;;;1.6;100.0;102100;;;;
2023/04/05 05:53:02;;;;;;;3.2;3.1;;;;;;;1.6;100.0;102100;;;;
2023/04/05 05:54:00;;;;;;;3.2;3.1;;;;;;;1.6;100.0;102100;;;;
2023/04/05 05:55:00;;;;;;;3.2;3.1;;;;;;;1.6;100.0;102100;;;;
2023/04/05 05:56:00;;;;;;;3.2;3.1;;;;;;;1.6;100.0;102100;;;;
2023/04/05 05:57:01;;;;;;;3.2;3.1;;;;;;;1.6;100.0;102100;;;;
2023/04/05 05:58:00;;;;;;;3.2;3.1;;;;;;;1.6;100.0;102100;;;;
2023/04/05 05:59:00;;;;;;;3.2;3.1;;;;;;;1.6;100.0;102100;;;;
2023/04/05 06:00:00;;;;;;;3.2;3.1;;;;;;;1.5;100.0;102100;;;;
2023/04/05 06:01:02;;;;;;;3.2;3.1;;;;;;;1.5;100.0;102100;;;;
2023/04/05 06:02:00;;;;;;;3.2;3.1;;;;;;;1.6;100.0;102100;;;;
2023/04/05 06:03:00;;;;;;;3.2;3.1;;;;;;;1.6;100.0;102100;;;;
2023/04/05 06:04:00;;;;;;;3.2;3.1;;;;;;;1.7;100.0;102110;;;;
2023/04/05 06:05:00;;;;;;;2.9;2.8;;;;;;;1.7;100.0;102110;;;;
2023/04/05 06:06:04;;;;;;;2.9;2.8;;;;;;;1.7;100.0;102100;;;;
2023/04/05 06:07:00;;;;;;;2.9;2.8;;;;;;;1.7;100.0;102100;;;;
2023/04/05 06:08:02;;;;;;;2.9;2.8;;;;;;;1.8;100.0;102100;;;;
2023/04/05 06:09:00;;;;;;;2.9;2.8;;;;;;;1.8;100.0;102100;;;;
2023/04/05 06:10:00;;;;;;;2.9;2.8;;;;;;;1.7;100.0;102110;;;;
2023/04/05 06:11:00;;;;;;;2.9;2.8;;;;;;;1.7;100.0;102110;;;;
2023/04/05 06:12:00;;;;;;;2.9;2.8;;;;;;;1.8;100.0;102110;;;;
2023/04/05 06:13:01;;;;;;;2.9;2.8;;;;;;;1.8;100.0;102110;;;;
2023/04/05 06:14:00;;;;;;;2.9;2.8;;;;;;;1.8;100.0;102110;;;;
2023/04/05 06:15:00;;;;;;;2.9;2.8;;;;;;;1.8;100.0;102110;;;;
2023/04/05 06:16:00;;;;;;;2.9;2.8;;;;;;;1.9;100.0;102110;;;;
2023/04/05 06:17:00;;;;;;;2.9;2.8;;;;;;;1.9;100.0;102110;;;;
2023/04/05 06:18:00;;;;;;;2.9;2.8;;;;;;;2.0;100.0;102110;;;;
2023/04/05 06:19:00;;;;;;;2.9;2.8;;;;;;;2.0;100.0;102110;;;;
2023/04/05 06:20:00;;;;;;;2.9;2.8;;;;;;;2.2;100.0;102110;;;;
2023/04/05 06:21:00;;;;;;;2.9;2.8;;;;;;;2.2;100.0;102110;;;;
2023/04/05 06:22:00;;;;;;;2.9;2.8;;;;;;;2.0;100.0;102110;;;;
2023/04/05 06:23:00;;;;;;;2.9;2.8;;;;;;;2.0;100.0;102110;;;;
2023/04/05 06:24:00;;;;;;;2.9;2.8;;;;;;;2.1;100.0;102110;;;;
2023/04/05 06:25:00;;;;;;;2.8;2.7;;;;;;;2.1;100.0;102110;;;;
2023/04/05 06:26:00;;;;;;;2.8;2.7;;;;;;;2.1;100.0;102110;;;;
2023/04/05 06:27:01;;;;;;;2.8;2.7;;;;;;;2.1;100.0;102110;;;;
2023/04/05 06:28:02;;;;;;;2.8;2.7;;;;;;;2.2;100.0;102110;;;;
2023/04/05 06:29:00;;;;;;;2.8;2.7;;;;;;;2.2;100.0;102110;;;;